Sacramento Executive Airport
KSAC : now visible

Airfield :











YOU CAN JOIN US ON...

 
LOGIN :

Register | Disclaimer

   EN    FR    IT 

 









Legend :    VFR   Marginal VFR   IFR   Intensive IFR   Very Intensive IFR
Visi :
Ceiling :
>= 8 km
>= 3000ft
5 to 8 km
1000 to 3000 ft
1500m to 5 km
500 to 1000 ft
800 to 1500m
200 to 500 ft
< 800m
< 200 ft
Symbols :   Thunderstorms  Fog  Heavy snow  Heavy precipitations  Wind > 20 kt






- Airport Elevation : 24 ft


KSAC - Sacramento Executive

CURRENT METAR :
  • 221053Z AUTO 14006KT 10SM FEW085 16/15 A2992 RMK AO2 SLP131 T01610150

EXPIRED METARs :
  • 220953Z AUTO 13004KT 10SM CLR 16/15 A2995 RMK AO2 SLP142 T01560150
  • 220853Z AUTO 14004KT 10SM SCT085 BKN110 16/16 A2997 RMK AO2 SLP147 T01560156 58016

TAF KSAC
Valid from the 22 at 12:00 until the 23 at 12:00 UTC


221127Z 2212/2312 18011KT P6SM -RA OVC050
TEMPO 2212/2216 18014G21KT 4SM -RA BKN015 OVC030
FM221700 21009KT P6SM BKN070 BKN120
FM222200 18007KT P6SM BKN250
KZOA FIR / North America



MET'MAP, your aeronautical weather chart ! - Copyright ORBIFLY December 2007 - Disclaimer

ORBIFLY MET'MAP TEAM :

Programming & Development : Alexandra Zaïnal
Concept & original design : Baudouin d'Aumeries
Assistance for programming : Marc-Olivier Méhu
Technical & hardware support : Manuel Goepfert

Contact : metmap@orbifly.com




SOURCES & CREDITS :

   NOAA       Earth
Advisory